Time;durP1;ratioP1;P1;durP2;ratioP2;P2;SDS_P1;SDS_P2;PMS_P1;PMS_P2;Temp;Humidity;BMP_temperature;BMP_pressure;BME280_temperature;BME280_humidity;BME280_pressure;Samples;Min_cycle;Max_cycle;Signal;HPM_P1;HPM_P2
2021/11/27 00:00:45;;;;;;;14.78;13.42;;;;;;;2.65;65.48;100736.36;459269;112;922571;-83
2021/11/27 00:01:50;;;;;;;15.86;14.41;;;;;;;2.66;65.53;100738.05;445723;117;923125;-84
2021/11/27 00:02:54;;;;;;;15.78;14.38;;;;;;;2.68;65.52;100738.75;459533;112;922850;-84
2021/11/27 00:03:59;;;;;;;14.74;13.47;;;;;;;2.69;65.52;100726.98;459557;112;922996;-84
2021/11/27 00:05:03;;;;;;;17.04;15.11;;;;;;;2.69;65.40;100724.29;458988;112;930439;-84
2021/11/27 00:06:08;;;;;;;16.23;14.65;;;;;;;2.67;65.40;100720.91;460253;112;922507;-84
2021/11/27 00:07:12;;;;;;;16.25;14.74;;;;;;;2.65;65.39;100720.20;460359;111;930436;-84
2021/11/27 00:08:18;;;;;;;15.29;13.80;;;;;;;2.63;65.45;100716.85;460566;112;922656;-83
2021/11/27 00:09:22;;;;;;;17.20;15.38;;;;;;;2.62;65.58;100707.08;459896;112;922629;-83
2021/11/27 00:10:28;;;;;;;17.59;15.93;;;;;;;2.62;65.66;100703.55;459915;114;923019;-82
2021/11/27 00:11:32;;;;;;;17.77;15.08;;;;;;;2.63;65.73;100716.00;458928;112;922637;-83
2021/11/27 00:12:36;;;;;;;15.94;14.50;;;;;;;2.63;65.76;100711.47;459423;112;923063;-83
2021/11/27 00:13:40;;;;;;;16.23;14.75;;;;;;;2.64;65.78;100710.47;459800;114;922602;-83
2021/11/27 00:14:43;;;;;;;16.89;15.31;;;;;;;2.63;65.78;100703.39;460378;114;930446;-83
2021/11/27 00:15:48;;;;;;;19.12;16.94;;;;;;;2.64;65.82;100705.09;461355;111;922619;-82
2021/11/27 00:16:52;;;;;;;18.83;16.72;;;;;;;2.63;65.83;100695.32;460237;112;922951;-83
2021/11/27 00:17:57;;;;;;;22.69;17.61;;;;;;;2.63;65.83;100702.55;459521;113;922573;-83
2021/11/27 00:19:01;;;;;;;19.21;16.77;;;;;;;2.62;65.90;100690.94;460067;113;922670;-83
2021/11/27 00:20:09;;;;;;;19.26;16.81;;;;;;;2.61;65.93;100693.78;460619;111;922421;-83
2021/11/27 00:21:14;;;;;;;20.08;17.12;;;;;;;2.60;66.02;100687.55;459650;114;922521;-83
2021/11/27 00:22:18;;;;;;;23.07;17.17;;;;;;;2.60;66.00;100681.31;460936;112;923009;-84
2021/11/27 00:23:23;;;;;;;25.56;19.14;;;;;;;2.59;66.02;100685.04;460418;112;922648;-83
2021/11/27 00:24:27;;;;;;;19.68;16.71;;;;;;;2.59;66.04;100685.04;459939;112;922537;-83
2021/11/27 00:25:31;;;;;;;18.01;15.95;;;;;;;2.59;66.13;100690.42;459913;112;922545;-84
2021/11/27 00:26:35;;;;;;;20.82;16.29;;;;;;;2.59;66.22;100679.66;459605;112;922501;-84
2021/11/27 00:27:39;;;;;;;18.44;16.54;;;;;;;2.61;66.33;100681.16;458381;112;923639;-84
2021/11/27 00:28:44;;;;;;;19.49;16.96;;;;;;;2.62;66.34;100682.02;460780;112;923092;-85
2021/11/27 00:29:47;;;;;;;17.06;15.46;;;;;;;2.62;66.32;100676.63;460353;112;923014;-83
2021/11/27 00:30:54;;;;;;;19.45;16.82;;;;;;;2.63;66.41;100681.02;459622;112;922663;-83
2021/11/27 00:31:58;;;;;;;16.56;14.91;;;;;;;2.65;66.54;100673.59;459750;112;931012;-83
2021/11/27 00:33:03;;;;;;;14.09;12.76;;;;;;;2.69;66.58;100677.68;458590;112;922550;-83
2021/11/27 00:34:06;;;;;;;18.87;15.50;;;;;;;2.73;66.66;100674.50;459665;112;922479;-83
2021/11/27 00:35:10;;;;;;;20.71;15.39;;;;;;;2.75;66.57;100677.88;459434;111;922420;-84
2021/11/27 00:36:16;;;;;;;16.29;14.66;;;;;;;2.77;66.50;100672.31;461394;112;922601;-83
2021/11/27 00:37:21;;;;;;;15.91;14.43;;;;;;;2.78;66.51;100677.55;459290;112;930691;-84
2021/11/27 00:38:25;;;;;;;16.14;14.70;;;;;;;2.79;66.61;100673.85;460816;114;923037;-83
2021/11/27 00:39:29;;;;;;;19.34;15.42;;;;;;;2.81;66.62;100674.52;460439;111;922465;-84
2021/11/27 00:40:36;;;;;;;16.07;14.49;;;;;;;2.82;66.54;100678.89;452041;116;922623;-83
2021/11/27 00:41:41;;;;;;;18.59;16.42;;;;;;;2.84;66.50;100673.36;460541;111;923132;-84
2021/11/27 00:42:46;;;;;;;16.65;14.81;;;;;;;2.83;66.50;100675.20;459790;112;922654;-83
2021/11/27 00:43:50;;;;;;;18.56;16.56;;;;;;;2.84;66.54;100667.97;459541;113;922679;-83
2021/11/27 00:44:54;;;;;;;19.92;16.65;;;;;;;2.86;66.57;100679.44;460185;113;922627;-83
2021/11/27 00:45:57;;;;;;;18.46;15.81;;;;;;;2.87;66.62;100676.55;460230;111;923253;-83
2021/11/27 00:47:02;;;;;;;18.26;16.38;;;;;;;2.88;66.65;100683.64;459961;111;922716;-84
2021/11/27 00:48:07;;;;;;;20.81;15.46;;;;;;;2.90;66.59;100680.79;459989;111;922606;-84
2021/11/27 00:49:12;;;;;;;16.53;14.31;;;;;;;2.91;66.66;100680.63;451425;116;922489;-83
2021/11/27 00:50:20;;;;;;;16.17;14.41;;;;;;;2.94;66.73;100680.30;459955;111;922630;-83
2021/11/27 00:51:26;;;;;;;15.46;13.92;;;;;;;2.97;66.73;100671.06;460492;112;922860;-84
2021/11/27 00:52:30;;;;;;;14.05;12.71;;;;;;;2.99;66.75;100671.72;460222;112;923030;-83
2021/11/27 00:53:35;;;;;;;21.79;15.65;;;;;;;3.03;66.80;100673.10;460811;114;922523;-82
2021/11/27 00:54:39;;;;;;;15.31;13.82;;;;;;;3.05;66.72;100673.76;458383;112;923010;-83
2021/11/27 00:55:43;;;;;;;15.19;13.61;;;;;;;3.06;66.78;100670.06;457858;112;922629;-84
2021/11/27 00:56:48;;;;;;;15.45;13.91;;;;;;;3.09;66.83;100679.68;459398;112;922718;-83
2021/11/27 00:57:51;;;;;;;15.30;13.71;;;;;;;3.10;66.78;100667.87;459080;114;923153;-84
2021/11/27 00:58:55;;;;;;;14.61;13.24;;;;;;;3.12;66.74;100672.10;462492;112;930380;-83
2021/11/27 00:59:59;;;;;;;14.26;12.38;;;;;;;3.14;66.77;100667.37;460583;113;922609;-83
2021/11/27 01:01:06;;;;;;;16.16;13.26;;;;;;;3.15;66.71;100662.83;460523;112;922611;-82
2021/11/27 01:02:11;;;;;;;16.15;12.31;;;;;;;3.13;66.67;100663.02;460494;114;922563;-85
2021/11/27 01:03:18;;;;;;;14.14;12.76;;;;;;;3.11;66.61;100665.02;461669;111;922659;-84
2021/11/27 01:04:23;;;;;;;14.77;12.55;;;;;;;3.10;66.74;100660.64;460374;112;923561;-83
2021/11/27 01:05:27;;;;;;;14.69;13.39;;;;;;;3.11;66.86;100656.94;459988;111;922756;-83
2021/11/27 01:06:31;;;;;;;13.31;12.05;;;;;;;3.14;66.92;100663.86;460499;113;922662;-83
2021/11/27 01:07:35;;;;;;;13.91;12.71;;;;;;;3.17;66.88;100664.36;461330;111;922450;-82
2021/11/27 01:08:40;;;;;;;13.82;12.50;;;;;;;3.19;66.83;100669.59;459998;113;922596;-83
2021/11/27 01:09:44;;;;;;;14.31;13.11;;;;;;;3.22;66.83;100667.41;460989;112;922888;-83
2021/11/27 01:10:52;;;;;;;14.25;12.88;;;;;;;3.24;66.83;100665.41;460612;111;922700;-82
2021/11/27 01:11:56;;;;;;;15.01;13.42;;;;;;;3.28;66.81;100660.52;451027;114;922399;-83
2021/11/27 01:12:59;;;;;;;14.75;13.26;;;;;;;3.29;66.67;100659.51;459432;112;922414;-82
2021/11/27 01:14:07;;;;;;;15.29;13.61;;;;;;;3.29;66.58;100662.20;460747;111;922436;-82
2021/11/27 01:15:14;;;;;;;14.50;13.04;;;;;;;3.29;66.67;100657.66;459060;113;922495;-83
2021/11/27 01:16:20;;;;;;;15.79;13.72;;;;;;;3.31;66.68;100660.16;459574;111;922486;-84
2021/11/27 01:17:24;;;;;;;14.21;12.98;;;;;;;3.32;66.65;100669.94;459582;112;922664;-83
2021/11/27 01:18:28;;;;;;;15.05;13.45;;;;;;;3.33;66.72;100668.94;459944;113;922960;-82
2021/11/27 01:19:34;;;;;;;15.42;13.86;;;;;;;3.33;66.73;100664.39;458082;114;922867;-83
2021/11/27 01:20:47;;;;;;;15.57;14.04;;;;;;;3.36;66.65;100663.23;461006;112;922429;-83
2021/11/27 01:21:55;;;;;;;15.94;14.11;;;;;;;3.35;66.66;100664.23;460347;112;922434;-83
2021/11/27 01:23:06;;;;;;;13.49;12.32;;;;;;;3.49;66.77;100666.27;471992;110;947583;-83
2021/11/27 01:24:14;;;;;;;13.34;12.10;;;;;;;3.40;66.73;100667.27;460923;112;923295;-82
2021/11/27 01:25:19;;;;;;;13.64;12.33;;;;;;;3.41;66.66;100662.73;457249;113;922329;-82
2021/11/27 01:26:23;;;;;;;13.67;12.32;;;;;;;3.41;66.65;100663.58;456940;113;922885;-84
2021/11/27 01:27:27;;;;;;;14.96;13.49;;;;;;;3.42;66.74;100662.54;457096;113;922951;-83
2021/11/27 01:28:31;;;;;;;14.79;13.25;;;;;;;3.46;66.74;100660.37;457365;114;922679;-83
2021/11/27 01:29:35;;;;;;;14.71;13.06;;;;;;;3.49;66.72;100662.72;456906;113;930252;-83
2021/11/27 01:30:39;;;;;;;14.54;12.89;;;;;;;3.52;66.67;100657.02;456711;113;922602;-83
2021/11/27 01:31:43;;;;;;;13.94;12.67;;;;;;;3.54;66.67;100658.52;457398;113;922564;-82
2021/11/27 01:32:48;;;;;;;14.14;12.80;;;;;;;3.58;66.63;100651.80;456798;113;922410;-84
2021/11/27 01:33:53;;;;;;;14.71;13.40;;;;;;;3.62;66.60;100647.75;456442;113;922436;-82
2021/11/27 01:34:57;;;;;;;13.71;12.51;;;;;;;3.65;66.49;100646.55;457104;113;922508;-83
2021/11/27 01:36:03;;;;;;;12.92;11.75;;;;;;;3.68;66.46;100647.08;457053;113;922726;-83
2021/11/27 01:37:07;;;;;;;13.69;12.31;;;;;;;3.71;66.40;100644.03;457360;113;922677;-83
2021/11/27 01:38:11;;;;;;;13.43;12.21;;;;;;;3.74;66.38;100637.47;456930;113;923168;-84
2021/11/27 01:39:15;;;;;;;12.71;11.61;;;;;;;3.78;66.30;100641.50;456492;114;930412;-83
2021/11/27 01:40:22;;;;;;;13.28;11.88;;;;;;;3.82;66.20;100641.99;456482;113;922386;-83
2021/11/27 01:41:26;;;;;;;13.67;12.41;;;;;;;3.84;66.16;100626.50;456968;113;922439;-83
2021/11/27 01:42:30;;;;;;;14.44;13.12;;;;;;;3.87;66.09;100628.84;457316;113;922594;-83
2021/11/27 01:43:35;;;;;;;13.56;12.36;;;;;;;3.89;66.05;100632.22;446734;116;922327;-83
2021/11/27 01:44:39;;;;;;;14.76;13.41;;;;;;;3.91;65.92;100630.20;439910;118;923100;-82
2021/11/27 01:45:43;;;;;;;14.58;13.17;;;;;;;3.90;65.83;100632.06;457223;114;922676;-84
2021/11/27 01:46:47;;;;;;;15.52;14.17;;;;;;;3.89;65.61;100629.52;457053;113;922518;-84
2021/11/27 01:47:54;;;;;;;14.89;13.40;;;;;;;3.86;65.56;100627.99;456279;113;925299;-84
2021/11/27 01:48:58;;;;;;;13.85;12.67;;;;;;;3.82;65.50;100625.81;456455;113;922585;-81
2021/11/27 01:50:03;;;;;;;13.04;11.93;;;;;;;3.77;65.47;100623.63;456551;114;922404;-81
2021/11/27 01:51:10;;;;;;;14.36;12.92;;;;;;;3.72;65.52;100618.75;444903;117;922629;-81
2021/11/27 01:52:14;;;;;;;14.74;13.27;;;;;;;3.69;65.62;100610.98;445701;116;922547;-81
2021/11/27 01:53:22;;;;;;;15.32;13.78;;;;;;;3.69;65.71;100605.59;446777;116;922695;-82
2021/11/27 01:54:25;;;;;;;17.11;15.34;;;;;;;3.68;65.71;100600.39;440453;118;930500;-80
2021/11/27 01:55:30;;;;;;;19.31;15.72;;;;;;;3.67;65.70;100601.41;455996;113;922924;-80
2021/11/27 01:56:40;;;;;;;19.00;15.28;;;;;;;3.65;65.74;100598.86;455911;113;923085;-80
2021/11/27 01:57:46;;;;;;;17.21;15.30;;;;;;;3.64;65.77;100596.33;455636;113;922773;-81
2021/11/27 01:58:50;;;;;;;15.57;14.00;;;;;;;3.62;65.77;100591.12;456639;113;922569;-80
2021/11/27 01:59:54;;;;;;;16.82;15.09;;;;;;;3.61;65.80;100596.69;444724;116;922793;-81
2021/11/27 02:01:01;;;;;;;17.49;15.09;;;;;;;3.59;65.83;100596.00;444688;115;922653;-78
2021/11/27 02:02:10;;;;;;;15.05;13.62;;;;;;;3.55;65.86;100600.05;446433;116;923259;-78
2021/11/27 02:03:14;;;;;;;16.65;14.98;;;;;;;3.51;65.97;100598.72;439879;116;922609;-80
2021/11/27 02:04:32;;;;;;;51.52;34.73;;;;;;;3.49;66.07;100598.03;453331;115;922620;-79
2021/11/27 02:05:36;;;;;;;114.05;65.93;;;;;;;3.48;66.11;100594.48;456659;113;922613;-79
2021/11/27 02:06:42;;;;;;;174.74;99.39;;;;;;;3.46;66.20;100588.44;444261;116;922747;-78
2021/11/27 02:07:47;;;;;;;173.56;97.36;;;;;;;3.43;66.25;100583.38;445611;113;922859;-79
2021/11/27 02:08:53;;;;;;;175.76;96.71;;;;;;;3.43;66.36;100580.68;444420;116;922675;-78
2021/11/27 02:09:58;;;;;;;161.28;86.25;;;;;;;3.42;66.43;100586.27;444446;116;922762;-79
2021/11/27 02:11:04;;;;;;;168.06;90.51;;;;;;;3.43;66.52;100583.38;455857;115;922494;-77
2021/11/27 02:12:11;;;;;;;143.13;73.83;;;;;;;3.44;66.55;100600.39;454920;114;922712;-81
2021/11/27 02:13:16;;;;;;;133.24;67.90;;;;;;;3.44;66.60;100592.30;454299;114;922795;-79
2021/11/27 02:14:21;;;;;;;120.36;61.58;;;;;;;3.45;66.60;100592.14;456612;113;923015;-79
2021/11/27 02:15:26;;;;;;;99.83;50.96;;;;;;;3.45;66.63;100585.91;454856;114;923046;-78
2021/11/27 02:16:31;;;;;;;48.91;29.25;;;;;;;3.44;66.61;100585.06;456613;114;922542;-79
2021/11/27 02:17:35;;;;;;;28.95;19.70;;;;;;;3.45;66.63;100588.61;456549;113;922859;-78
2021/11/27 02:18:40;;;;;;;14.66;13.37;;;;;;;3.45;66.65;100589.45;456738;113;922882;-78
2021/11/27 02:19:45;;;;;;;14.85;13.45;;;;;;;3.46;66.75;100587.60;456748;113;922662;-79
2021/11/27 02:21:01;;;;;;;13.70;12.56;;;;;;;3.47;66.82;100586.59;456630;114;923132;-78
2021/11/27 02:22:06;;;;;;;16.44;14.89;;;;;;;3.47;66.76;100589.29;456051;113;922995;-79
2021/11/27 02:23:14;;;;;;;13.83;12.68;;;;;;;3.47;66.83;100595.53;455527;113;923075;-80
2021/11/27 02:24:20;;;;;;;19.13;17.38;;;;;;;3.48;66.82;100594.48;456575;113;922690;-77
2021/11/27 02:25:24;;;;;;;25.79;23.47;;;;;;;3.48;66.84;100596.34;456030;113;923002;-79
2021/11/27 02:26:32;;;;;;;26.21;23.91;;;;;;;3.47;66.82;100591.98;456611;113;922674;-79
2021/11/27 02:27:36;;;;;;;23.96;21.76;;;;;;;3.46;66.80;100584.91;456415;113;922701;-79
2021/11/27 02:28:45;;;;;;;21.39;19.38;;;;;;;3.45;66.79;100584.06;456077;116;922754;-80
2021/11/27 02:29:49;;;;;;;23.09;20.62;;;;;;;3.45;66.83;100602.92;456110;114;922610;-79
2021/11/27 02:30:53;;;;;;;30.92;23.29;;;;;;;3.45;66.79;100589.45;454831;114;922887;-79
2021/11/27 02:31:59;;;;;;;33.58;24.05;;;;;;;3.45;66.82;100589.45;455460;114;930630;-77
2021/11/27 02:33:02;;;;;;;39.71;24.92;;;;;;;3.46;66.88;100588.44;456309;114;923629;-77
2021/11/27 02:34:07;;;;;;;26.96;19.54;;;;;;;3.46;66.88;100593.84;456615;113;923144;-79
2021/11/27 02:35:11;;;;;;;39.22;27.16;;;;;;;3.46;66.92;100588.44;455583;113;922872;-78
2021/11/27 02:36:15;;;;;;;41.47;29.38;;;;;;;3.48;66.91;100583.70;456307;113;922561;-79
2021/11/27 02:37:19;;;;;;;48.64;32.42;;;;;;;3.50;66.88;100578.16;455980;113;923037;-78
2021/11/27 02:38:24;;;;;;;24.03;21.07;;;;;;;3.51;66.89;100586.08;456354;113;922641;-78
2021/11/27 02:39:29;;;;;;;21.36;18.81;;;;;;;3.53;66.94;100594.82;456146;113;922549;-80
2021/11/27 02:40:34;;;;;;;14.61;13.35;;;;;;;3.57;66.95;100587.26;456623;113;922422;-77
2021/11/27 02:41:38;;;;;;;16.96;15.24;;;;;;;3.60;66.92;100576.13;456558;113;922993;-77
2021/11/27 02:42:42;;;;;;;26.33;23.71;;;;;;;3.63;66.91;100584.73;456432;113;922812;-81
2021/11/27 02:43:46;;;;;;;20.87;18.86;;;;;;;3.66;66.90;100578.98;456666;113;922605;-77
2021/11/27 02:44:50;;;;;;;25.53;23.06;;;;;;;3.70;66.83;100574.92;455600;113;930708;-80
2021/11/27 02:45:54;;;;;;;22.39;20.27;;;;;;;3.72;66.78;100581.00;456504;113;922697;-79
2021/11/27 02:46:59;;;;;;;188.53;124.96;;;;;;;3.76;66.68;100578.80;456895;113;923278;-77
2021/11/27 02:48:03;;;;;;;197.79;131.97;;;;;;;3.79;66.58;100575.77;457769;114;922645;-79
2021/11/27 02:49:08;;;;;;;105.93;69.64;;;;;;;3.82;66.52;100579.97;457945;113;922814;-77
2021/11/27 02:50:13;;;;;;;90.93;66.31;;;;;;;3.84;66.46;100580.65;458058;114;922927;-78
2021/11/27 02:51:18;;;;;;;31.82;27.52;;;;;;;3.84;66.35;100578.80;456859;114;923096;-79
2021/11/27 02:52:22;;;;;;;19.78;17.92;;;;;;;3.87;66.27;100570.34;458745;113;922759;-78
2021/11/27 02:53:26;;;;;;;14.69;13.46;;;;;;;3.88;66.18;100568.50;458407;113;922912;-77
2021/11/27 02:54:30;;;;;;;11.96;10.96;;;;;;;3.89;66.14;100571.03;456619;113;922620;-79
2021/11/27 02:55:33;;;;;;;9.99;9.02;;;;;;;3.90;66.07;100569.17;456182;114;922728;-80
2021/11/27 02:56:38;;;;;;;14.61;12.76;;;;;;;3.91;65.96;100569.02;448058;116;922558;-79
2021/11/27 02:57:42;;;;;;;22.97;19.11;;;;;;;3.92;65.89;100575.22;447546;116;923056;-78
2021/11/27 02:58:45;;;;;;;11.12;10.04;;;;;;;3.93;65.83;100585.00;448159;115;922929;-80
2021/11/27 02:59:49;;;;;;;9.29;8.49;;;;;;;3.93;65.82;100579.61;456623;115;922646;-78
2021/11/27 03:00:55;;;;;;;8.25;7.55;;;;;;;3.95;65.80;100581.13;457215;113;923458;-78
2021/11/27 03:02:02;;;;;;;9.07;7.67;;;;;;;3.97;65.73;100580.97;447676;116;923614;-79
2021/11/27 03:03:07;;;;;;;7.71;6.98;;;;;;;3.97;65.64;100579.09;440300;117;922761;-77
2021/11/27 03:04:12;;;;;;;9.66;7.33;;;;;;;4.00;65.57;100586.85;457181;113;923281;-79
2021/11/27 03:05:17;;;;;;;9.26;8.28;;;;;;;4.02;65.55;100583.99;456593;113;923062;-78
2021/11/27 03:06:22;;;;;;;55.42;35.05;;;;;;;4.03;65.42;100580.25;457363;113;922600;-79
2021/11/27 03:07:26;;;;;;;56.11;32.97;;;;;;;4.03;65.27;100581.09;457427;114;922704;-78
2021/11/27 03:08:29;;;;;;;38.62;26.74;;;;;;;4.04;65.25;100579.24;457713;113;922884;-78
2021/11/27 03:09:34;;;;;;;31.60;21.44;;;;;;;4.05;65.17;100578.23;456805;113;923262;-77
2021/11/27 03:10:38;;;;;;;31.65;23.83;;;;;;;4.05;65.12;100575.54;457290;113;923141;-79
2021/11/27 03:11:46;;;;;;;60.21;36.46;;;;;;;4.06;65.11;100580.77;456782;115;922674;-78
2021/11/27 03:12:52;;;;;;;134.02;81.72;;;;;;;4.07;65.05;100570.82;457072;114;923064;-80
2021/11/27 03:13:56;;;;;;;124.18;73.99;;;;;;;4.07;64.98;100578.92;457919;112;922941;-77
2021/11/27 03:15:00;;;;;;;95.44;60.96;;;;;;;4.07;64.93;100576.22;456841;114;922624;-78
2021/11/27 03:16:04;;;;;;;111.17;72.01;;;;;;;4.08;64.92;100578.72;457933;114;922732;-82
2021/11/27 03:17:09;;;;;;;141.85;93.92;;;;;;;4.09;64.88;100571.47;457176;113;922621;-78
2021/11/27 03:18:15;;;;;;;63.72;45.21;;;;;;;4.08;64.85;100562.53;455768;114;922699;-77
2021/11/27 03:19:19;;;;;;;109.78;78.01;;;;;;;4.09;64.80;100568.77;456685;113;922664;-77
2021/11/27 03:20:23;;;;;;;86.45;59.45;;;;;;;4.09;64.73;100558.83;456144;114;922659;-79
2021/11/27 03:21:27;;;;;;;58.62;40.33;;;;;;;4.09;64.64;100563.38;456377;113;930200;-79
2021/11/27 03:22:31;;;;;;;38.68;30.29;;;;;;;4.07;64.65;100557.33;456936;114;922628;-79
2021/11/27 03:23:35;;;;;;;25.34;22.26;;;;;;;4.06;64.66;100569.13;456946;114;930567;-80
2021/11/27 03:24:39;;;;;;;18.30;16.60;;;;;;;4.05;64.60;100553.95;457468;115;922602;-79
2021/11/27 03:25:43;;;;;;;39.42;29.54;;;;;;;4.04;64.56;100560.36;456031;114;930604;-79
2021/11/27 03:26:47;;;;;;;19.35;17.39;;;;;;;4.02;64.58;100554.31;456867;114;930207;-79
2021/11/27 03:27:50;;;;;;;17.28;14.62;;;;;;;4.02;64.56;100557.02;456705;114;923170;-78
2021/11/27 03:28:55;;;;;;;23.72;19.99;;;;;;;4.00;64.50;100557.18;457276;114;922950;-78
2021/11/27 03:29:59;;;;;;;23.92;21.33;;;;;;;3.99;64.49;100557.34;457437;114;922710;-79
2021/11/27 03:31:03;;;;;;;18.72;16.93;;;;;;;3.97;64.51;100564.78;457457;114;923406;-78
2021/11/27 03:32:10;;;;;;;29.93;25.82;;;;;;;3.97;64.54;100554.81;456598;114;922610;-78
2021/11/27 03:33:19;;;;;;;27.10;24.29;;;;;;;3.97;64.52;100556.70;456379;114;922566;-78
2021/11/27 03:34:23;;;;;;;17.21;15.66;;;;;;;3.97;64.50;100565.59;457106;114;922669;-77
2021/11/27 03:35:27;;;;;;;12.68;11.58;;;;;;;3.97;64.50;100560.20;457895;114;922466;-79
2021/11/27 03:36:33;;;;;;;9.89;9.07;;;;;;;3.97;64.47;100559.39;456875;114;922383;-79
2021/11/27 03:37:38;;;;;;;8.78;8.08;;;;;;;3.97;64.50;100573.69;457959;114;922516;-80
2021/11/27 03:38:42;;;;;;;8.37;7.67;;;;;;;3.99;64.47;100566.28;456906;114;922883;-80
2021/11/27 03:39:45;;;;;;;9.21;8.00;;;;;;;4.00;64.46;100559.88;457080;114;922825;-77
2021/11/27 03:40:50;;;;;;;7.75;7.10;;;;;;;4.02;64.42;100562.41;447602;116;922581;-79
2021/11/27 03:41:54;;;;;;;7.79;7.10;;;;;;;4.03;64.39;100555.97;448293;117;923058;-78
2021/11/27 03:42:59;;;;;;;9.04;8.15;;;;;;;4.05;64.35;100545.86;445252;117;930649;-77
2021/11/27 03:44:03;;;;;;;8.39;7.72;;;;;;;4.05;64.26;100552.10;442713;118;922518;-79
2021/11/27 03:45:10;;;;;;;8.36;7.66;;;;;;;4.06;64.25;100547.55;443177;118;922890;-78
2021/11/27 03:46:14;;;;;;;7.27;6.67;;;;;;;4.07;64.21;100546.54;439680;119;922759;-77
2021/11/27 03:47:19;;;;;;;7.56;6.90;;;;;;;4.08;64.18;100554.44;449306;114;922845;-80
2021/11/27 03:48:31;;;;;;;8.36;7.65;;;;;;;4.09;64.16;100550.73;457292;114;922616;-81
2021/11/27 03:49:40;;;;;;;8.53;7.41;;;;;;;4.11;64.13;100542.47;456900;114;922589;-76
2021/11/27 03:50:47;;;;;;;8.21;7.49;;;;;;;4.12;64.03;100545.00;457729;114;922615;-79
2021/11/27 03:51:51;;;;;;;7.86;7.16;;;;;;;4.12;63.99;100545.00;457033;114;923171;-78
2021/11/27 03:52:55;;;;;;;8.06;7.38;;;;;;;4.14;63.97;100547.50;456789;114;922590;-77
2021/11/27 03:53:59;;;;;;;8.59;7.89;;;;;;;4.14;63.91;100550.20;457712;114;924602;-78
2021/11/27 03:55:03;;;;;;;8.64;7.94;;;;;;;4.14;63.84;100547.50;448788;116;922677;-78
2021/11/27 03:56:11;;;;;;;8.59;7.85;;;;;;;4.14;63.81;100548.34;450687;115;923418;-79
2021/11/27 03:57:15;;;;;;;8.24;7.57;;;;;;;4.15;63.79;100543.80;456482;114;923079;-78
2021/11/27 03:58:19;;;;;;;8.81;8.01;;;;;;;4.15;63.71;100541.95;457532;114;922543;-81
2021/11/27 03:59:24;;;;;;;8.55;7.83;;;;;;;4.15;63.77;100538.40;457581;114;922564;-79
2021/11/27 04:00:29;;;;;;;10.01;9.22;;;;;;;4.16;63.68;100545.48;456174;114;922833;-78
2021/11/27 04:01:35;;;;;;;9.54;8.80;;;;;;;4.18;63.67;100546.16;447478;116;922724;-79
2021/11/27 04:02:39;;;;;;;8.93;8.23;;;;;;;4.18;63.62;100546.16;447456;118;923008;-78
2021/11/27 04:03:45;;;;;;;9.31;8.55;;;;;;;4.19;63.60;100550.52;439087;118;922662;-78
2021/11/27 04:04:49;;;;;;;9.41;8.60;;;;;;;4.20;63.54;100552.20;439912;117;923057;-79
2021/11/27 04:05:56;;;;;;;9.48;8.64;;;;;;;4.21;63.49;100556.59;438366;118;922789;-77
2021/11/27 04:07:02;;;;;;;7.75;7.10;;;;;;;4.22;63.47;100552.89;437246;118;923156;-78
2021/11/27 04:08:05;;;;;;;7.76;7.14;;;;;;;4.24;63.44;100558.12;440092;119;922873;-79
2021/11/27 04:09:10;;;;;;;8.18;7.44;;;;;;;4.25;63.40;100557.92;447280;116;922693;-77
2021/11/27 04:10:15;;;;;;;8.40;7.70;;;;;;;4.26;63.34;100554.21;445079;117;923011;-79
2021/11/27 04:11:19;;;;;;;8.68;7.77;;;;;;;4.27;63.29;100557.75;443036;117;922577;-79
2021/11/27 04:12:23;;;;;;;8.74;7.94;;;;;;;4.28;63.27;100562.98;440477;118;923364;-79
2021/11/27 04:13:27;;;;;;;8.22;7.52;;;;;;;4.29;63.22;100561.98;441065;118;923903;-78
2021/11/27 04:14:31;;;;;;;8.49;7.71;;;;;;;4.31;63.12;100564.48;441614;118;922661;-78
2021/11/27 04:15:36;;;;;;;8.18;7.42;;;;;;;4.32;63.06;100566.16;442860;118;930542;-78
2021/11/27 04:16:40;;;;;;;7.52;6.90;;;;;;;4.32;62.96;100567.02;442387;119;922688;-77
2021/11/27 04:17:44;;;;;;;7.71;7.01;;;;;;;4.32;62.89;100567.02;442295;119;923049;-79
2021/11/27 04:18:48;;;;;;;7.98;7.35;;;;;;;4.32;62.84;100566.16;441855;118;922603;-79
2021/11/27 04:19:52;;;;;;;9.12;8.13;;;;;;;4.34;62.86;100566.84;443310;117;922701;-81
2021/11/27 04:20:56;;;;;;;8.97;8.13;;;;;;;4.34;62.82;100562.29;442948;119;922657;-78
2021/11/27 04:22:00;;;;;;;9.72;8.47;;;;;;;4.36;62.81;100559.39;442436;119;923301;-80
2021/11/27 04:23:05;;;;;;;10.59;9.59;;;;;;;4.37;62.74;100558.38;433960;121;922758;-79
2021/11/27 04:24:09;;;;;;;10.99;9.89;;;;;;;4.37;62.68;100551.12;432484;121;922435;-82
2021/11/27 04:25:13;;;;;;;12.00;10.95;;;;;;;4.36;62.57;100554.84;433149;122;922657;-78
2021/11/27 04:26:20;;;;;;;11.71;10.53;;;;;;;4.37;62.52;100558.38;446376;116;922417;-78
2021/11/27 04:27:24;;;;;;;12.96;11.86;;;;;;;4.36;62.50;100553.99;454280;115;922626;-82
2021/11/27 04:28:28;;;;;;;12.22;11.12;;;;;;;4.34;62.62;100546.09;454118;114;922481;-82
2021/11/27 04:29:31;;;;;;;11.61;10.65;;;;;;;4.34;62.62;100546.09;453654;116;930324;-81
2021/11/27 04:30:35;;;;;;;12.05;10.94;;;;;;;4.34;62.45;100551.50;453203;114;922805;-81
2021/11/27 04:31:39;;;;;;;11.32;10.33;;;;;;;4.34;62.42;100558.75;453853;114;922501;-82
2021/11/27 04:32:44;;;;;;;11.66;10.65;;;;;;;4.33;62.38;100549.80;453775;116;922562;-86
2021/11/27 04:33:52;;;;;;;12.46;11.36;;;;;;;4.33;62.39;100549.80;453663;116;922637;-85
2021/11/27 04:34:56;;;;;;;11.98;10.77;;;;;;;4.33;62.34;100555.20;453451;114;922670;-81
2021/11/27 04:36:01;;;;;;;11.18;10.26;;;;;;;4.33;62.32;100539.01;453672;114;923020;-82
2021/11/27 04:37:10;;;;;;;10.34;9.36;;;;;;;4.33;62.26;100549.80;453549;114;922673;-82
2021/11/27 04:38:13;;;;;;;9.45;8.65;;;;;;;4.33;62.25;100551.66;453976;114;922644;-82
2021/11/27 04:39:17;;;;;;;10.59;9.52;;;;;;;4.31;62.18;100549.13;445572;116;923262;-81
2021/11/27 04:40:23;;;;;;;9.49;8.69;;;;;;;4.31;62.16;100548.28;446328;116;922624;-81
2021/11/27 04:41:27;;;;;;;9.98;9.05;;;;;;;4.30;62.15;100539.34;453835;114;922475;-83
2021/11/27 04:42:31;;;;;;;8.86;8.16;;;;;;;4.29;62.14;100544.94;445650;119;922427;-83
2021/11/27 04:43:35;;;;;;;8.75;8.02;;;;;;;4.29;62.09;100544.94;445116;116;923078;-81
2021/11/27 04:44:39;;;;;;;9.74;8.89;;;;;;;4.29;62.08;100548.48;454053;114;922466;-82
2021/11/27 04:45:44;;;;;;;8.11;7.45;;;;;;;4.30;62.06;100543.92;453816;115;922610;-82
2021/11/27 04:46:48;;;;;;;8.75;7.99;;;;;;;4.30;62.05;100539.34;450172;115;930677;-83
2021/11/27 04:47:52;;;;;;;7.82;7.21;;;;;;;4.32;61.99;100547.27;450560;114;930456;-83
2021/11/27 04:48:56;;;;;;;8.89;8.08;;;;;;;4.30;61.94;100546.63;453895;114;924109;-83
2021/11/27 04:50:01;;;;;;;7.75;7.07;;;;;;;4.30;61.95;100547.44;454179;115;922632;-82
2021/11/27 04:51:05;;;;;;;7.90;7.28;;;;;;;4.30;61.88;100547.44;453025;114;922357;-83
2021/11/27 04:52:10;;;;;;;7.44;6.72;;;;;;;4.30;61.84;100555.54;453904;114;923215;-82
2021/11/27 04:53:14;;;;;;;8.22;7.45;;;;;;;4.30;61.76;100552.84;453509;115;922659;-81
2021/11/27 04:54:18;;;;;;;8.52;7.77;;;;;;;4.30;61.76;100554.72;444593;117;923097;-83
2021/11/27 04:55:23;;;;;;;8.22;7.52;;;;;;;4.29;61.74;100553.88;444306;117;930528;-80
2021/11/27 04:56:31;;;;;;;8.59;7.89;;;;;;;4.30;61.75;100565.52;443331;117;922614;-81